createdAt,value
2022-09-23T00:01:42.686Z,18.56
2022-09-23T00:04:09.722Z,18.56
2022-09-23T00:06:36.719Z,18.56
2022-09-23T00:09:03.721Z,18.56
2022-09-23T00:11:30.710Z,18.50
2022-09-23T00:13:57.668Z,18.50
2022-09-23T00:16:24.695Z,18.50
2022-09-23T00:18:51.658Z,18.50
2022-09-23T00:21:18.639Z,18.50
2022-09-23T00:23:45.636Z,18.50
2022-09-23T00:26:12.640Z,18.50
2022-09-23T00:28:39.616Z,18.50
2022-09-23T00:31:06.633Z,18.50
2022-09-23T00:33:33.732Z,18.50
2022-09-23T00:36:00.717Z,18.50
2022-09-23T00:38:27.721Z,18.44
2022-09-23T00:40:54.671Z,18.44
2022-09-23T00:43:21.618Z,18.44
2022-09-23T00:45:48.727Z,18.44
2022-09-23T00:48:15.727Z,18.44
2022-09-23T00:50:42.711Z,18.44
2022-09-23T00:53:09.711Z,18.44
2022-09-23T00:55:36.685Z,18.44
2022-09-23T00:58:03.641Z,18.44
2022-09-23T01:00:30.592Z,18.44
2022-09-23T01:02:57.585Z,18.44
2022-09-23T01:05:24.525Z,18.38
2022-09-23T01:07:51.485Z,18.44
2022-09-23T01:10:18.480Z,18.38
2022-09-23T01:12:45.433Z,18.38
2022-09-23T01:15:12.442Z,18.38
2022-09-23T01:17:39.417Z,18.38
2022-09-23T01:20:06.354Z,18.38
2022-09-23T01:22:33.336Z,18.38
2022-09-23T01:25:00.312Z,18.38
2022-09-23T01:27:27.296Z,18.31
2022-09-23T01:29:54.260Z,18.31
2022-09-23T01:32:21.226Z,18.31
2022-09-23T01:34:48.206Z,18.31
2022-09-23T01:37:15.152Z,18.31
2022-09-23T01:39:42.073Z,18.31
2022-09-23T01:42:09.005Z,18.31
2022-09-23T01:44:35.977Z,18.31
2022-09-23T01:47:02.956Z,18.31
2022-09-23T01:49:30.034Z,18.25
2022-09-23T01:51:57.052Z,18.31
2022-09-23T01:54:24.044Z,18.25
2022-09-23T01:56:51.001Z,18.25
2022-09-23T01:59:17.961Z,18.25
2022-09-23T02:01:44.971Z,18.25
2022-09-23T02:04:11.966Z,18.25
2022-09-23T02:06:38.925Z,18.25
2022-09-23T02:09:05.865Z,18.25
2022-09-23T02:11:32.814Z,18.25
2022-09-23T02:13:59.801Z,18.19
2022-09-23T02:16:26.798Z,18.25
2022-09-23T02:18:53.822Z,18.19
2022-09-23T02:21:20.766Z,18.19
2022-09-23T02:23:47.752Z,18.19
2022-09-23T02:26:14.700Z,18.19
2022-09-23T02:28:41.671Z,18.19
2022-09-23T02:31:08.619Z,18.13
2022-09-23T02:33:35.554Z,18.19
2022-09-23T02:36:02.510Z,18.19
2022-09-23T02:38:29.473Z,18.13
2022-09-23T02:40:56.406Z,18.13
2022-09-23T02:43:23.383Z,18.13
2022-09-23T02:45:50.390Z,18.13
2022-09-23T02:48:17.404Z,18.13
2022-09-23T02:50:44.400Z,18.13
2022-09-23T02:53:11.371Z,18.13
2022-09-23T02:55:38.338Z,18.13
2022-09-23T02:58:05.334Z,19.25
2022-09-23T03:00:32.293Z,22.06
2022-09-23T03:02:59.274Z,24.38
2022-09-23T03:05:26.207Z,26.31
2022-09-23T03:07:53.142Z,26.13
2022-09-23T03:10:20.107Z,25.00
2022-09-23T03:12:47.043Z,26.56
2022-09-23T03:15:14.071Z,27.88
2022-09-23T03:17:41.041Z,26.94
2022-09-23T03:20:08.007Z,26.06
2022-09-23T03:22:35.003Z,26.19
2022-09-23T03:25:01.911Z,28.44
2022-09-23T03:27:28.844Z,28.38
2022-09-23T03:29:55.804Z,27.44
2022-09-23T03:32:22.752Z,26.75
2022-09-23T03:34:49.712Z,26.31
2022-09-23T03:37:16.671Z,25.88
2022-09-23T03:39:43.598Z,25.63
2022-09-23T03:42:10.537Z,27.50
2022-09-23T03:44:37.456Z,28.63
2022-09-23T03:47:04.428Z,27.81
2022-09-23T03:49:31.389Z,27.13
2022-09-23T03:51:58.346Z,26.63
2022-09-23T03:54:25.302Z,26.25
2022-09-23T03:56:52.246Z,26.50
2022-09-23T03:59:19.187Z,28.75
2022-09-23T04:01:46.260Z,28.69
2022-09-23T04:04:13.297Z,27.81
2022-09-23T04:06:40.258Z,27.25
2022-09-23T04:09:07.182Z,26.75
2022-09-23T04:11:34.175Z,26.44
2022-09-23T04:14:01.307Z,26.13
2022-09-23T04:16:28.323Z,27.81
2022-09-23T04:18:55.291Z,29.06
2022-09-23T04:21:22.197Z,28.25
2022-09-23T04:23:51.980Z,27.56
2022-09-23T04:26:18.920Z,27.06
2022-09-23T04:28:45.871Z,26.63
2022-09-23T04:31:12.921Z,26.25
2022-09-23T04:33:39.899Z,26.38
2022-09-23T04:36:06.879Z,28.69
2022-09-23T04:38:33.858Z,29.06
2022-09-23T04:41:00.803Z,28.13
2022-09-23T04:43:27.738Z,27.56
2022-09-23T04:45:54.815Z,27.06
2022-09-23T04:48:21.775Z,26.56
2022-09-23T04:50:48.718Z,27.38
2022-09-23T04:53:15.624Z,29.31
2022-09-23T04:55:42.600Z,28.69
2022-09-23T04:58:09.507Z,27.81
2022-09-23T05:00:36.529Z,27.25
2022-09-23T05:03:03.480Z,26.69
2022-09-23T05:05:30.437Z,26.75
2022-09-23T05:07:57.401Z,29.00
2022-09-23T05:10:24.353Z,29.13
2022-09-23T05:12:56.332Z,28.25
2022-09-23T05:15:24.069Z,27.56
2022-09-23T05:17:50.989Z,27.00
2022-09-23T05:20:17.946Z,26.56
2022-09-23T05:22:44.891Z,26.63
2022-09-23T05:25:11.842Z,28.88
2022-09-23T05:27:38.756Z,29.06
2022-09-23T05:30:05.705Z,28.19
2022-09-23T05:32:32.683Z,27.56
2022-09-23T05:34:59.606Z,27.06
2022-09-23T05:37:26.557Z,26.69
2022-09-23T05:39:53.506Z,26.38
2022-09-23T05:42:20.453Z,28.06
2022-09-23T05:44:47.418Z,29.38
2022-09-23T05:47:14.362Z,28.44
2022-09-23T05:49:58.572Z,27.75
2022-09-23T05:52:26.424Z,27.13
2022-09-23T05:54:53.405Z,26.75
2022-09-23T05:57:20.373Z,26.44
2022-09-23T05:59:47.292Z,27.50
2022-09-23T06:02:14.235Z,29.25
2022-09-23T06:04:41.202Z,28.56
2022-09-23T06:07:08.107Z,27.81
2022-09-23T06:09:36.719Z,27.31
2022-09-23T06:12:03.921Z,26.81
2022-09-23T06:14:30.821Z,26.50
2022-09-23T06:16:57.787Z,26.19
2022-09-23T06:19:24.720Z,25.88
2022-09-23T06:21:51.658Z,25.75
2022-09-23T06:24:22.953Z,27.81
2022-09-23T06:26:51.857Z,28.75
2022-09-23T06:29:18.808Z,27.88
2022-09-23T06:31:45.773Z,27.25
2022-09-23T06:34:13.714Z,26.75
2022-09-23T06:36:44.487Z,26.38
2022-09-23T06:39:12.207Z,26.00
2022-09-23T06:41:39.157Z,25.75
2022-09-23T06:44:06.195Z,25.50
2022-09-23T06:46:33.301Z,25.81
2022-09-23T06:49:00.340Z,28.06
2022-09-23T06:51:27.273Z,28.13
2022-09-23T06:53:54.171Z,27.25
2022-09-23T06:56:21.125Z,26.69
2022-09-23T06:58:48.036Z,26.31
2022-09-23T07:01:15.003Z,25.94
2022-09-23T07:03:41.986Z,25.63
2022-09-23T07:06:08.915Z,25.38
2022-09-23T07:08:35.912Z,25.13
2022-09-23T07:11:02.863Z,24.94
2022-09-23T07:13:29.880Z,24.75
2022-09-23T07:15:56.870Z,24.56
2022-09-23T07:18:23.819Z,24.38
2022-09-23T07:20:50.785Z,24.25
2022-09-23T07:23:17.788Z,24.06
2022-09-23T07:25:44.756Z,23.94
2022-09-23T07:28:11.737Z,23.75
2022-09-23T07:30:39.658Z,23.63
2022-09-23T07:33:25.310Z,23.44
2022-09-23T07:35:54.748Z,23.31
2022-09-23T07:38:21.661Z,23.13
2022-09-23T07:40:48.637Z,23.06
2022-09-23T07:43:15.623Z,22.94
2022-09-23T07:45:42.563Z,22.81
2022-09-23T07:48:09.471Z,22.69
2022-09-23T07:50:36.471Z,22.63
2022-09-23T07:53:03.424Z,22.50
2022-09-23T07:55:30.356Z,22.44
2022-09-23T07:57:57.304Z,23.13
2022-09-23T08:00:24.256Z,25.81
2022-09-23T08:02:53.075Z,26.94
2022-09-23T08:05:20.274Z,25.94
2022-09-23T08:07:47.220Z,25.19
2022-09-23T08:10:14.164Z,24.69
2022-09-23T08:12:41.110Z,25.31
2022-09-23T08:15:08.039Z,27.44
2022-09-23T08:17:35.012Z,27.06
2022-09-23T08:20:01.928Z,26.31
2022-09-23T08:22:28.895Z,25.75
2022-09-23T08:24:56.825Z,25.44
2022-09-23T08:27:23.906Z,25.13
2022-09-23T08:29:50.868Z,24.81
2022-09-23T08:32:17.836Z,24.69
2022-09-23T08:34:44.778Z,26.69
2022-09-23T08:37:11.692Z,27.75
2022-09-23T08:39:38.613Z,26.94
2022-09-23T08:42:05.565Z,26.31
2022-09-23T08:44:32.520Z,25.88
2022-09-23T08:46:59.512Z,25.56
2022-09-23T08:49:26.441Z,25.25
2022-09-23T08:51:53.343Z,24.94
2022-09-23T08:54:20.289Z,24.75
2022-09-23T08:56:47.238Z,24.56
2022-09-23T08:59:14.206Z,24.38
2022-09-23T09:01:41.265Z,24.44
2022-09-23T09:04:12.422Z,26.63
2022-09-23T09:06:52.381Z,27.31
2022-09-23T09:09:20.359Z,26.44
2022-09-23T09:11:48.695Z,25.88
2022-09-23T09:14:15.727Z,25.50
2022-09-23T09:16:58.964Z,25.19
2022-09-23T09:19:26.827Z,24.94
2022-09-23T09:21:53.776Z,24.69
2022-09-23T09:24:20.714Z,24.50
2022-09-23T09:26:47.628Z,24.31
2022-09-23T09:29:34.232Z,24.38
2022-09-23T09:32:01.512Z,26.94
2022-09-23T09:34:28.439Z,27.25
2022-09-23T09:36:55.446Z,26.44
2022-09-23T09:39:26.101Z,25.88
2022-09-23T09:41:53.280Z,25.50
2022-09-23T09:44:20.240Z,25.19
2022-09-23T09:46:47.293Z,24.94
2022-09-23T09:49:14.329Z,24.69
2022-09-23T09:51:41.284Z,24.50
2022-09-23T09:54:08.139Z,24.31
2022-09-23T09:56:35.086Z,24.19
2022-09-23T09:59:02.165Z,24.00
2022-09-23T10:01:29.190Z,23.88
2022-09-23T10:03:59.192Z,23.69
2022-09-23T10:06:26.622Z,23.56
2022-09-23T10:08:53.597Z,23.44
2022-09-23T10:11:20.559Z,24.75
2022-09-23T10:13:47.465Z,26.56
2022-09-23T10:16:14.449Z,26.00
2022-09-23T10:18:41.416Z,25.44
2022-09-23T10:21:08.378Z,25.00
2022-09-23T10:23:35.324Z,24.75
2022-09-23T10:26:02.285Z,24.56
2022-09-23T10:28:29.222Z,24.31
2022-09-23T10:30:56.336Z,24.06
2022-09-23T10:33:23.352Z,23.94
2022-09-23T10:35:50.275Z,23.81
2022-09-23T10:38:17.231Z,23.69
2022-09-23T10:40:44.276Z,23.50
2022-09-23T10:43:11.334Z,23.38
2022-09-23T10:45:41.069Z,23.31
2022-09-23T10:48:10.205Z,23.13
2022-09-23T10:50:37.136Z,23.06
2022-09-23T10:53:04.125Z,22.94
2022-09-23T10:55:31.041Z,22.81
2022-09-23T10:57:57.992Z,23.88
2022-09-23T11:00:24.945Z,25.94
2022-09-23T11:02:51.885Z,25.50
2022-09-23T11:05:18.824Z,24.88
2022-09-23T11:07:45.755Z,24.50
2022-09-23T11:10:23.355Z,24.19
2022-09-23T11:12:59.697Z,23.94
2022-09-23T11:15:26.692Z,23.75
2022-09-23T11:17:53.613Z,23.56
2022-09-23T11:20:20.580Z,23.44
2022-09-23T11:22:47.572Z,23.31
2022-09-23T11:25:14.536Z,23.19
2022-09-23T11:27:41.470Z,23.06
2022-09-23T11:30:08.437Z,23.00
2022-09-23T11:32:35.397Z,22.88
2022-09-23T11:35:02.346Z,22.75
2022-09-23T11:37:29.285Z,22.69
2022-09-23T11:39:56.240Z,22.63
2022-09-23T11:42:23.187Z,22.50
2022-09-23T11:44:50.166Z,22.44
2022-09-23T11:47:17.078Z,22.31
2022-09-23T11:49:43.967Z,22.25
2022-09-23T11:52:10.906Z,22.19
2022-09-23T11:54:37.884Z,22.13
2022-09-23T11:57:04.849Z,22.06
2022-09-23T11:59:39.665Z,21.94
2022-09-23T12:02:17.656Z,21.88
2022-09-23T12:04:56.017Z,21.81
2022-09-23T12:07:24.884Z,21.75
2022-09-23T12:09:58.502Z,21.69
2022-09-23T12:12:27.179Z,21.63
2022-09-23T12:14:54.350Z,21.56
2022-09-23T12:17:21.366Z,21.50
2022-09-23T12:19:48.294Z,21.44
2022-09-23T12:22:15.252Z,21.38
2022-09-23T12:24:42.247Z,21.31
2022-09-23T12:27:09.193Z,21.31
2022-09-23T12:29:36.145Z,21.25
2022-09-23T12:32:03.101Z,21.19
2022-09-23T12:34:30.034Z,21.13
2022-09-23T12:36:56.942Z,21.13
2022-09-23T12:39:23.888Z,21.06
2022-09-23T12:41:50.822Z,21.00
2022-09-23T12:44:17.736Z,20.94
2022-09-23T12:46:44.662Z,20.94
2022-09-23T12:49:11.631Z,20.88
2022-09-23T12:51:38.624Z,20.88
2022-09-23T12:54:05.554Z,20.81
2022-09-23T12:56:32.462Z,20.75
2022-09-23T12:58:59.384Z,20.75
2022-09-23T13:01:26.545Z,20.69
2022-09-23T13:03:53.597Z,20.69
2022-09-23T13:06:20.512Z,20.63
2022-09-23T13:08:47.450Z,20.63
2022-09-23T13:11:14.423Z,20.56
2022-09-23T13:13:41.384Z,20.56
2022-09-23T13:16:08.368Z,20.50
2022-09-23T13:18:35.363Z,20.50
2022-09-23T13:21:02.317Z,20.44
2022-09-23T13:23:29.240Z,20.44
2022-09-23T13:25:56.217Z,20.38
2022-09-23T13:28:23.157Z,20.38
2022-09-23T13:30:50.098Z,20.31
2022-09-23T13:33:17.031Z,20.31
2022-09-23T13:35:43.943Z,20.31
2022-09-23T13:38:10.898Z,20.25
2022-09-23T13:40:37.918Z,20.25
2022-09-23T13:43:04.957Z,20.25
2022-09-23T14:35:43.036Z,19.88
2022-09-23T14:38:09.977Z,19.81
2022-09-23T14:40:36.940Z,19.81
2022-09-23T14:43:03.879Z,19.75
2022-09-23T14:45:30.897Z,19.75
2022-09-23T14:47:57.903Z,19.75
2022-09-23T14:50:24.842Z,19.75
2022-09-23T14:52:51.755Z,19.69
2022-09-23T14:55:18.693Z,19.69
2022-09-23T14:57:45.636Z,19.69
2022-09-23T15:00:12.569Z,19.69
2022-09-23T15:02:39.569Z,19.69
2022-09-23T15:05:06.495Z,19.69
2022-09-23T15:07:33.407Z,19.63
2022-09-23T15:10:00.344Z,19.63
2022-09-23T15:12:27.281Z,19.63
2022-09-23T15:14:54.185Z,19.56
2022-09-23T15:17:21.100Z,19.56
2022-09-23T15:19:48.048Z,19.56
2022-09-23T15:22:14.960Z,19.56
2022-09-23T15:24:41.884Z,19.56
2022-09-23T15:27:08.825Z,19.56
2022-09-23T15:29:36.284Z,19.50
2022-09-23T15:32:03.315Z,19.50
2022-09-23T15:34:30.309Z,19.50
2022-09-23T15:36:57.271Z,19.50
2022-09-23T15:39:32.052Z,19.50
2022-09-23T15:42:03.311Z,19.44
2022-09-23T15:44:30.238Z,19.44
2022-09-23T15:46:57.164Z,19.44
2022-09-23T15:49:24.121Z,19.44
2022-09-23T15:51:51.054Z,19.44
2022-09-23T15:54:17.961Z,19.44
2022-09-23T15:56:44.962Z,19.38
2022-09-23T15:59:11.949Z,19.38
2022-09-23T16:01:38.942Z,19.38
2022-09-23T16:04:05.894Z,19.38
2022-09-23T16:06:32.819Z,19.38
2022-09-23T16:08:59.904Z,19.38
2022-09-23T16:11:26.868Z,19.31
2022-09-23T16:13:53.784Z,19.31
2022-09-23T16:16:20.787Z,19.31
2022-09-23T16:18:47.751Z,19.31
2022-09-23T16:21:14.748Z,19.31
2022-09-23T16:23:41.945Z,19.31
2022-09-23T16:26:08.855Z,19.25
2022-09-23T16:28:35.778Z,19.25
2022-09-23T16:31:02.696Z,19.25
2022-09-23T16:33:29.618Z,19.19
2022-09-23T16:35:56.549Z,19.25
2022-09-23T16:38:23.555Z,19.25
2022-09-23T16:40:50.510Z,19.19
2022-09-23T16:43:17.479Z,19.19
2022-09-23T16:45:44.731Z,19.19
2022-09-23T16:48:11.699Z,19.19
2022-09-23T16:50:38.645Z,19.19
2022-09-23T16:53:05.572Z,19.13
2022-09-23T16:55:32.490Z,19.13
2022-09-23T16:57:59.424Z,19.13
2022-09-23T17:00:26.427Z,19.13
2022-09-23T17:02:53.713Z,19.13
2022-09-23T17:05:20.615Z,19.13
2022-09-23T17:07:47.521Z,19.13
2022-09-23T17:10:14.436Z,19.31
2022-09-23T17:12:41.374Z,21.69
2022-09-23T17:15:08.301Z,22.63
2022-09-23T17:17:35.245Z,21.94
2022-09-23T17:20:02.484Z,21.44
2022-09-23T17:22:29.418Z,21.13
2022-09-23T17:24:56.521Z,20.94
2022-09-23T17:27:23.456Z,20.81
2022-09-23T17:29:50.798Z,20.69
2022-09-23T17:32:17.946Z,20.56
2022-09-23T17:34:44.922Z,20.50
2022-09-23T17:37:11.835Z,20.44
2022-09-23T17:39:38.744Z,20.38
2022-09-23T17:42:05.965Z,20.31
2022-09-23T17:44:32.871Z,20.25
2022-09-23T17:46:59.784Z,20.25
2022-09-23T17:49:27.291Z,20.19
2022-09-23T17:51:54.223Z,20.13
2022-09-23T17:54:21.160Z,20.13
2022-09-23T17:56:48.096Z,20.06
2022-09-23T17:59:15.003Z,20.00
2022-09-23T18:01:41.992Z,20.06
2022-09-23T18:04:08.969Z,22.31
2022-09-23T18:06:35.896Z,23.44
2022-09-23T18:09:02.826Z,22.75
2022-09-23T18:11:29.754Z,22.25
2022-09-23T18:13:56.655Z,21.94
2022-09-23T18:16:23.677Z,21.69
2022-09-23T18:18:50.755Z,21.50
2022-09-23T18:21:17.710Z,21.38
2022-09-23T18:23:44.861Z,21.25
2022-09-23T18:26:11.864Z,21.19
2022-09-23T18:28:38.776Z,21.06
2022-09-23T18:31:05.702Z,21.00
2022-09-23T18:33:32.604Z,20.94
2022-09-23T18:35:59.649Z,20.88
2022-09-23T18:38:26.602Z,20.81
2022-09-23T18:40:53.545Z,20.75
2022-09-23T18:43:23.541Z,20.69
2022-09-23T18:45:52.652Z,20.63
2022-09-23T18:48:19.680Z,20.56
2022-09-23T18:50:46.575Z,21.88
2022-09-23T18:53:13.488Z,24.00
2022-09-23T18:55:40.413Z,23.63
2022-09-23T18:58:07.525Z,23.75
2022-09-23T19:00:34.618Z,24.63
2022-09-23T19:03:01.753Z,25.31
2022-09-23T19:05:28.885Z,25.69
2022-09-23T19:07:55.796Z,25.88
2022-09-23T19:10:22.695Z,25.81
2022-09-23T19:12:49.628Z,25.75
2022-09-23T19:15:16.552Z,25.56
2022-09-23T19:17:43.477Z,25.38
2022-09-23T19:20:10.442Z,25.13
2022-09-23T19:22:37.715Z,24.88
2022-09-23T19:25:04.643Z,24.63
2022-09-23T19:27:32.024Z,24.38
2022-09-23T19:29:58.945Z,24.19
2022-09-23T19:32:26.241Z,23.94
2022-09-23T19:34:53.186Z,23.75
2022-09-23T19:37:20.112Z,23.56
2022-09-23T19:39:47.056Z,23.38
2022-09-23T19:42:13.988Z,23.25
2022-09-23T19:44:40.895Z,23.06
2022-09-23T19:47:07.899Z,22.94
2022-09-23T19:49:34.856Z,22.75
2022-09-23T19:52:01.838Z,22.63
2022-09-23T19:54:28.808Z,22.44
2022-09-23T19:56:55.747Z,22.31
2022-09-23T19:59:22.681Z,22.19
2022-09-23T20:01:49.853Z,22.06
2022-09-23T20:04:16.852Z,21.94
2022-09-23T20:06:43.835Z,21.81
2022-09-23T20:09:10.768Z,21.69
2022-09-23T20:11:37.682Z,21.63
2022-09-23T20:14:04.753Z,21.50
2022-09-23T20:16:32.313Z,21.44
2022-09-23T20:18:59.467Z,21.31
2022-09-23T20:21:26.387Z,21.25
2022-09-23T20:23:53.330Z,21.19
2022-09-23T20:26:20.337Z,21.06
2022-09-23T20:28:47.264Z,21.00
2022-09-23T20:31:14.207Z,20.94
2022-09-23T20:33:41.303Z,20.88
2022-09-23T20:36:08.248Z,20.75
2022-09-23T20:38:35.178Z,20.69
2022-09-23T20:41:02.148Z,20.63
2022-09-23T20:43:29.040Z,20.56
2022-09-23T20:45:55.974Z,20.50
2022-09-23T20:48:22.897Z,20.44
2022-09-23T20:50:49.824Z,20.38
2022-09-23T20:53:16.758Z,20.31
2022-09-23T20:55:43.713Z,20.25
2022-09-23T20:58:10.639Z,20.25
2022-09-23T21:00:37.644Z,20.19
2022-09-23T21:03:04.903Z,20.13
2022-09-23T21:05:31.867Z,20.06
2022-09-23T21:08:02.834Z,20.00
2022-09-23T21:10:30.316Z,19.94
2022-09-23T21:12:57.272Z,19.94
2022-09-23T21:15:24.196Z,19.88
2022-09-23T21:17:51.469Z,19.81
2022-09-23T21:20:18.391Z,19.81
2022-09-23T21:22:45.299Z,19.75
2022-09-23T21:25:29.087Z,19.69
2022-09-23T21:27:56.567Z,19.63
2022-09-23T21:30:23.500Z,19.63
2022-09-23T21:32:50.467Z,19.56
2022-09-23T21:35:17.372Z,19.56
2022-09-23T21:37:44.286Z,19.50
2022-09-23T21:40:11.453Z,19.50
2022-09-23T21:42:38.474Z,19.44
2022-09-23T21:45:05.389Z,19.38
2022-09-23T21:47:32.304Z,19.31
2022-09-23T21:49:59.204Z,19.31
2022-09-23T21:52:26.167Z,19.25
2022-09-23T21:54:53.096Z,19.25
2022-09-23T21:57:20.014Z,19.19
2022-09-23T21:59:46.933Z,19.19
2022-09-23T22:02:13.867Z,19.19
2022-09-23T22:04:40.866Z,19.13
2022-09-23T22:07:07.814Z,19.13
2022-09-23T22:09:34.757Z,19.06
2022-09-23T22:12:01.696Z,19.00
2022-09-23T22:14:28.610Z,19.00
2022-09-23T22:16:55.535Z,18.94
2022-09-23T22:19:22.472Z,18.94
2022-09-23T22:21:49.414Z,18.88
2022-09-23T22:24:16.354Z,18.88
2022-09-23T22:26:43.298Z,18.88
2022-09-23T22:29:10.209Z,18.81
2022-09-23T22:31:37.180Z,18.75
2022-09-23T22:34:04.240Z,18.75
2022-09-23T22:36:31.168Z,18.69
2022-09-23T22:38:59.334Z,18.69
2022-09-23T22:41:26.398Z,18.69
2022-09-23T22:43:53.348Z,18.63
2022-09-23T22:46:20.308Z,18.63
2022-09-23T22:48:47.265Z,18.56
2022-09-23T22:51:14.202Z,18.56
2022-09-23T22:53:41.133Z,18.50
2022-09-23T22:56:08.035Z,18.50
2022-09-23T22:58:34.967Z,18.50
2022-09-23T23:01:01.894Z,18.44
2022-09-23T23:03:28.855Z,18.44
2022-09-23T23:05:55.815Z,18.38
2022-09-23T23:08:22.724Z,18.38
2022-09-23T23:10:49.634Z,18.38
2022-09-23T23:13:16.573Z,18.31
2022-09-23T23:15:43.529Z,18.31
2022-09-23T23:18:10.529Z,18.25
2022-09-23T23:20:37.434Z,18.25
2022-09-23T23:23:04.346Z,18.19
2022-09-23T23:25:31.267Z,18.19
2022-09-23T23:27:58.165Z,18.13
2022-09-23T23:30:25.074Z,18.13
2022-09-23T23:32:52.092Z,18.13
2022-09-23T23:35:19.009Z,18.06
2022-09-23T23:37:45.906Z,18.06
2022-09-23T23:40:12.857Z,18.00
2022-09-23T23:42:39.846Z,18.00
2022-09-23T23:45:06.774Z,18.00
2022-09-23T23:47:33.698Z,17.94
2022-09-23T23:50:00.625Z,17.94
2022-09-23T23:52:27.579Z,17.94
2022-09-23T23:54:54.506Z,17.88
2022-09-23T23:57:21.461Z,17.88
2022-09-23T23:59:48.354Z,17.88
